KONL/ONL METAR and TAF weather

Enter ICAO airport designator
Station Type Date Time Source
KONL METAR 2021/09/23 23:35 UTC NOAA

KONL 232335Z AUTO 16006KT 10SM CLR 26/10 A2988 RMK AO2 T02590097


Station Type Date Time Source
KONL Decoded METAR 2021/09/23 23:35 UTC NOAA

O'Neill / Baker Field, NE, United States (KONL) 42-28N 098-41W
Sep 23, 2021 - 07:35 PM EDT / 2021.09.23 2335 UTC
Wind: from the SSE (160 degrees) at 7 MPH (6 KT):0
Visibility: 10 mile(s):0
Sky conditions: clear
Temperature: 78.6 F (25.9 C)
Dew Point: 49.5 F (9.7 C)
Relative Humidity: 35%
Pressure (altimeter): 29.88 in. Hg (1011 hPa)
ob: KONL 232335Z AUTO 16006KT 10SM CLR 26/10 A2988 RMK AO2 T02590097
cycle: 23

Station Type Date Time Source
KONL TAF UTC NOAA

Error!

Example: see airport list